Time;durP1;ratioP1;P1;durP2;ratioP2;P2;SDS_P1;SDS_P2;PMS_P1;PMS_P2;Temp;Humidity;BMP_temperature;BMP_pressure;BME280_temperature;BME280_humidity;BME280_pressure;Samples;Min_cycle;Max_cycle;Signal;HPM_P1;HPM_P2
2022/03/08 00:00:54;;;;;;;5.78;3.80;;;1.40;99.90;;;;;;5074110;28;20052;-64
2022/03/08 00:03:23;;;;;;;6.97;4.43;;;1.40;99.90;;;;;;5074185;28;20062;-63
2022/03/08 00:05:50;;;;;;;5.23;3.93;;;1.40;99.90;;;;;;5074972;28;20045;-64
2022/03/08 00:08:19;;;;;;;8.25;4.20;;;1.40;99.90;;;;;;5073064;28;20558;-63
2022/03/08 00:10:46;;;;;;;6.18;4.10;;;1.40;99.90;;;;;;5073594;28;20080;-64
2022/03/08 00:13:13;;;;;;;7.97;4.63;;;1.30;99.90;;;;;;5073298;28;20056;-64
2022/03/08 00:15:40;;;;;;;8.52;4.00;;;1.30;99.90;;;;;;5073077;28;20052;-63
2022/03/08 00:18:07;;;;;;;6.40;4.20;;;1.30;99.90;;;;;;5073890;28;20102;-64
2022/03/08 00:20:34;;;;;;;6.60;4.15;;;1.30;99.90;;;;;;5074744;28;20096;-63
2022/03/08 00:23:01;;;;;;;5.65;3.65;;;1.30;99.90;;;;;;5074178;28;20048;-63
2022/03/08 00:25:29;;;;;;;7.30;4.55;;;1.20;99.90;;;;;;5073691;28;20059;-64
2022/03/08 00:27:56;;;;;;;8.73;4.90;;;1.20;99.90;;;;;;5073477;28;20505;-63
2022/03/08 00:30:25;;;;;;;6.93;4.00;;;1.20;99.90;;;;;;5072703;28;20049;-62
2022/03/08 00:32:53;;;;;;;7.18;4.57;;;1.20;99.90;;;;;;5074175;28;20051;-65
2022/03/08 00:35:21;;;;;;;9.35;4.45;;;1.10;99.90;;;;;;5073327;28;20080;-63
2022/03/08 00:37:49;;;;;;;7.32;4.30;;;1.10;99.90;;;;;;5072858;28;20476;-64
2022/03/08 00:40:18;;;;;;;9.07;4.20;;;1.10;99.90;;;;;;5073201;28;20492;-64
2022/03/08 00:42:47;;;;;;;6.85;4.07;;;1.00;99.90;;;;;;5073141;28;20110;-63
2022/03/08 00:45:13;;;;;;;9.18;4.65;;;1.00;99.90;;;;;;5072887;28;20048;-64
2022/03/08 00:47:41;;;;;;;9.18;4.88;;;1.00;99.90;;;;;;5072565;28;20094;-63
2022/03/08 00:50:11;;;;;;;7.28;4.63;;;0.90;99.90;;;;;;5072388;28;20096;-64
2022/03/08 00:52:37;;;;;;;6.88;4.60;;;0.90;99.90;;;;;;5073105;28;20052;-63
2022/03/08 00:55:06;;;;;;;7.35;4.30;;;0.80;99.90;;;;;;5073056;28;20125;-62
2022/03/08 00:57:33;;;;;;;7.07;4.60;;;0.80;99.90;;;;;;5072060;28;20106;-62
2022/03/08 01:00:01;;;;;;;7.75;5.15;;;0.70;99.90;;;;;;5072887;28;20565;-62
2022/03/08 01:02:28;;;;;;;7.63;4.80;;;0.70;99.90;;;;;;5072318;28;20106;-63
2022/03/08 01:04:55;;;;;;;8.75;4.90;;;0.60;99.90;;;;;;5072265;28;20052;-64
2022/03/08 01:07:21;;;;;;;7.38;4.60;;;0.60;99.90;;;;;;5072555;28;20048;-62
2022/03/08 01:09:48;;;;;;;7.82;4.60;;;0.60;99.90;;;;;;5072555;28;20056;-63
2022/03/08 01:12:15;;;;;;;9.45;4.78;;;0.60;99.90;;;;;;5072088;28;20110;-63
2022/03/08 01:14:42;;;;;;;7.53;4.93;;;0.50;99.90;;;;;;5072693;28;20088;-63
2022/03/08 01:17:10;;;;;;;9.60;4.97;;;0.50;99.90;;;;;;5072301;28;20119;-63
2022/03/08 01:19:37;;;;;;;9.30;5.35;;;0.50;99.90;;;;;;5072903;28;20057;-63
2022/03/08 01:22:05;;;;;;;9.90;5.10;;;0.40;99.90;;;;;;5071894;28;20153;-63
2022/03/08 01:24:32;;;;;;;8.90;5.25;;;0.40;99.90;;;;;;5072604;28;20048;-63
2022/03/08 01:26:59;;;;;;;9.05;5.35;;;0.40;99.90;;;;;;5072705;28;20048;-63
2022/03/08 01:29:26;;;;;;;7.75;5.00;;;0.40;99.90;;;;;;5073587;28;20416;-64
2022/03/08 01:31:53;;;;;;;8.70;5.55;;;0.40;99.90;;;;;;5072670;28;20083;-63
2022/03/08 01:34:21;;;;;;;9.43;5.20;;;0.30;99.90;;;;;;5071579;28;20056;-63
2022/03/08 01:36:48;;;;;;;11.35;5.85;;;0.30;99.90;;;;;;5073449;28;20085;-63
2022/03/08 01:39:15;;;;;;;7.85;5.70;;;0.30;99.90;;;;;;5072233;28;20048;-63
2022/03/08 01:41:42;;;;;;;8.18;5.80;;;0.30;99.90;;;;;;5073109;28;20057;-63
2022/03/08 01:44:09;;;;;;;9.15;5.47;;;0.30;99.90;;;;;;5072162;28;20150;-63
2022/03/08 01:46:37;;;;;;;9.02;6.13;;;0.20;99.90;;;;;;5071178;28;20048;-62
2022/03/08 01:49:04;;;;;;;9.00;5.28;;;0.30;99.90;;;;;;5073041;28;20052;-64
2022/03/08 01:51:33;;;;;;;11.07;5.65;;;0.30;99.90;;;;;;5071972;28;20056;-63
2022/03/08 01:54:00;;;;;;;10.05;6.18;;;0.30;99.90;;;;;;5071374;28;20134;-63
2022/03/08 01:56:27;;;;;;;8.98;5.82;;;0.30;99.90;;;;;;5072018;28;20052;-64
2022/03/08 01:58:54;;;;;;;8.95;6.10;;;0.20;99.90;;;;;;5072861;28;20056;-62
2022/03/08 02:01:24;;;;;;;8.23;5.13;;;0.20;99.90;;;;;;5070846;28;20125;-64
2022/03/08 02:03:51;;;;;;;8.15;5.95;;;0.30;99.90;;;;;;5071632;28;20048;-63
2022/03/08 02:06:17;;;;;;;9.10;5.50;;;0.30;99.90;;;;;;5071780;28;20145;-63
2022/03/08 02:08:46;;;;;;;11.40;6.13;;;0.30;99.90;;;;;;5070948;28;20052;-62
2022/03/08 02:11:14;;;;;;;12.52;6.60;;;0.30;99.90;;;;;;5072742;28;20048;-63
2022/03/08 02:13:41;;;;;;;11.60;7.07;;;0.30;99.90;;;;;;5073293;28;20094;-64
2022/03/08 02:16:08;;;;;;;10.88;7.18;;;0.30;99.90;;;;;;5071821;28;20047;-62
2022/03/08 02:18:34;;;;;;;10.52;6.22;;;0.30;99.90;;;;;;5071807;28;20113;-64
2022/03/08 02:21:05;;;;;;;9.95;6.07;;;0.30;99.90;;;;;;5071563;28;20045;-64
2022/03/08 02:23:32;;;;;;;9.18;6.15;;;0.40;99.90;;;;;;5071372;28;20377;-64
2022/03/08 02:26:00;;;;;;;12.57;7.07;;;0.40;99.90;;;;;;5071772;28;20048;-63
2022/03/08 02:28:28;;;;;;;10.15;6.47;;;0.40;99.90;;;;;;5073389;28;20076;-63
2022/03/08 02:30:55;;;;;;;11.40;6.82;;;0.30;99.90;;;;;;5071236;28;20057;-63
2022/03/08 02:33:21;;;;;;;8.93;6.30;;;0.30;99.90;;;;;;5071831;28;20095;-64
2022/03/08 02:35:48;;;;;;;11.85;6.78;;;0.30;99.90;;;;;;5074814;28;20044;-63
2022/03/08 02:38:17;;;;;;;9.90;6.90;;;0.20;99.90;;;;;;5075646;28;20084;-63
2022/03/08 02:40:43;;;;;;;9.73;7.00;;;0.20;99.90;;;;;;5075639;28;20480;-62
2022/03/08 02:43:12;;;;;;;12.48;7.25;;;0.10;99.90;;;;;;5074429;28;20055;-64
2022/03/08 02:45:40;;;;;;;11.02;7.05;;;0.10;99.90;;;;;;5075705;28;20048;-62
2022/03/08 02:48:07;;;;;;;10.20;7.13;;;0.10;99.90;;;;;;5075392;28;20044;-62
2022/03/08 02:50:34;;;;;;;10.05;6.97;;;0.10;99.90;;;;;;5074931;28;20164;-63
2022/03/08 02:53:01;;;;;;;11.57;6.63;;;0.10;99.90;;;;;;5075693;28;20048;-63
2022/03/08 02:55:32;;;;;;;11.05;7.38;;;0.10;99.90;;;;;;5075278;28;20138;-63
2022/03/08 02:57:59;;;;;;;12.07;8.35;;;0.10;99.90;;;;;;5074008;28;20125;-62
2022/03/08 03:00:28;;;;;;;11.80;7.22;;;0.10;99.90;;;;;;5075219;28;20079;-64
2022/03/08 03:02:55;;;;;;;13.27;8.18;;;0.00;99.90;;;;;;5075053;28;20507;-64
2022/03/08 03:05:23;;;;;;;9.77;7.05;;;0.00;99.90;;;;;;5073930;28;20052;-64
2022/03/08 03:07:50;;;;;;;10.25;7.65;;;0.00;99.90;;;;;;5074923;28;20098;-64
2022/03/08 03:10:18;;;;;;;12.02;7.53;;;0.00;99.90;;;;;;5072998;28;20046;-64
2022/03/08 03:12:47;;;;;;;12.38;8.10;;;0.00;99.90;;;;;;5073872;28;20087;-63
2022/03/08 03:15:15;;;;;;;11.85;7.32;;;0.00;99.90;;;;;;5075288;28;20091;-64
2022/03/08 03:17:43;;;;;;;11.93;7.72;;;0.00;99.90;;;;;;5075201;28;20118;-64
2022/03/08 03:20:12;;;;;;;13.05;8.25;;;0.00;99.90;;;;;;5074515;28;20090;-63
2022/03/08 03:22:39;;;;;;;14.23;7.88;;;0.10;99.90;;;;;;5074816;28;20060;-64
2022/03/08 03:25:08;;;;;;;12.65;7.57;;;0.10;99.90;;;;;;5074100;28;20660;-63
2022/03/08 03:27:35;;;;;;;12.15;7.18;;;0.00;99.90;;;;;;5074518;28;20496;-63
2022/03/08 03:30:05;;;;;;;12.52;8.25;;;0.10;99.90;;;;;;5075698;28;20075;-64
2022/03/08 03:32:32;;;;;;;14.38;8.23;;;0.00;99.90;;;;;;5074104;28;20044;-64
2022/03/08 03:35:00;;;;;;;12.88;7.38;;;0.00;99.90;;;;;;5076347;28;20052;-64
2022/03/08 03:37:27;;;;;;;10.70;7.65;;;0.00;99.90;;;;;;5074577;28;20056;-63
2022/03/08 03:39:54;;;;;;;13.20;8.48;;;0.00;99.90;;;;;;5073718;28;20143;-63
2022/03/08 03:42:21;;;;;;;13.63;7.75;;;0.00;99.90;;;;;;5075159;28;20083;-64
2022/03/08 03:44:48;;;;;;;12.18;8.43;;;-0.10;99.90;;;;;;5073744;28;20049;-63
2022/03/08 03:47:16;;;;;;;12.35;8.40;;;-0.10;99.90;;;;;;5073793;28;20095;-63
2022/03/08 03:49:43;;;;;;;14.48;8.70;;;-0.20;99.90;;;;;;5074055;28;20048;-62
2022/03/08 03:52:10;;;;;;;12.90;8.55;;;-0.20;99.90;;;;;;5073793;28;20060;-64
2022/03/08 03:54:36;;;;;;;14.40;8.85;;;-0.20;99.90;;;;;;5073312;28;20110;-63
2022/03/08 03:57:04;;;;;;;12.20;8.60;;;-0.30;99.90;;;;;;5073901;28;20056;-62
2022/03/08 03:59:30;;;;;;;13.75;8.57;;;-0.20;99.90;;;;;;5074361;28;20103;-64
2022/03/08 04:01:57;;;;;;;14.27;8.85;;;-0.30;99.90;;;;;;5073503;28;20443;-63
2022/03/08 04:04:25;;;;;;;13.93;8.70;;;-0.30;99.90;;;;;;5075356;28;20052;-63
2022/03/08 04:06:53;;;;;;;14.95;8.77;;;-0.30;99.90;;;;;;5075308;28;20049;-64
2022/03/08 04:09:20;;;;;;;11.98;8.40;;;-0.30;99.90;;;;;;5074232;28;20555;-62
2022/03/08 04:11:47;;;;;;;12.70;9.85;;;-0.30;99.90;;;;;;5073487;28;20113;-62
2022/03/08 04:14:15;;;;;;;14.23;9.48;;;-0.30;99.90;;;;;;5073208;28;20084;-62
2022/03/08 04:16:42;;;;;;;12.82;8.82;;;-0.30;99.90;;;;;;5073980;28;20052;-63
2022/03/08 04:19:08;;;;;;;15.23;8.70;;;-0.30;99.90;;;;;;5074795;28;20053;-62
2022/03/08 04:21:37;;;;;;;14.10;8.43;;;-0.30;99.90;;;;;;5073047;28;20048;-62
2022/03/08 04:24:04;;;;;;;14.70;9.63;;;-0.30;99.90;;;;;;5073528;28;20056;-63
2022/03/08 04:26:31;;;;;;;12.88;8.73;;;-0.30;99.90;;;;;;5074117;28;20162;-62
2022/03/08 04:28:57;;;;;;;16.30;9.35;;;-0.30;99.90;;;;;;5073929;28;20044;-61
2022/03/08 04:31:24;;;;;;;17.45;10.18;;;0.00;99.90;;;;;;5073473;28;20557;-63
2022/03/08 04:33:51;;;;;;;14.07;8.75;;;-0.30;99.90;;;;;;5073387;28;20080;-62
2022/03/08 04:36:18;;;;;;;16.25;9.70;;;-0.30;99.90;;;;;;5072993;28;20094;-62
2022/03/08 04:38:46;;;;;;;15.50;10.50;;;-0.30;99.90;;;;;;5073240;28;20078;-62
2022/03/08 04:41:13;;;;;;;14.80;9.45;;;-0.30;99.90;;;;;;5073038;28;20053;-63
2022/03/08 04:43:40;;;;;;;15.50;9.23;;;-0.30;99.90;;;;;;5072743;28;20060;-62
2022/03/08 04:46:07;;;;;;;14.55;9.40;;;-0.40;99.90;;;;;;5069278;28;20488;-63
2022/03/08 04:48:33;;;;;;;15.43;10.20;;;-0.30;99.90;;;;;;5056350;28;20045;-63
2022/03/08 04:51:00;;;;;;;15.02;9.65;;;-0.40;99.90;;;;;;5065609;28;20048;-64
2022/03/08 04:53:27;;;;;;;15.05;9.23;;;-0.40;99.90;;;;;;5062507;28;20052;-64
2022/03/08 04:55:55;;;;;;;16.58;9.77;;;-0.40;99.90;;;;;;5062371;28;20082;-63
2022/03/08 04:58:22;;;;;;;12.63;9.45;;;-0.40;99.90;;;;;;5061764;28;20404;-64
2022/03/08 05:00:49;;;;;;;16.27;10.05;;;-0.40;99.90;;;;;;5068984;28;20049;-64
2022/03/08 05:03:16;;;;;;;15.55;9.40;;;-0.40;99.90;;;;;;5065892;28;20047;-63
2022/03/08 05:05:43;;;;;;;16.63;9.63;;;-0.40;99.90;;;;;;5071818;28;20099;-63
2022/03/08 05:08:09;;;;;;;17.58;9.80;;;-0.40;99.90;;;;;;5064176;28;20561;-63
2022/03/08 05:10:36;;;;;;;14.73;9.73;;;-0.40;99.90;;;;;;5062327;28;20491;-63
2022/03/08 05:13:05;;;;;;;18.65;10.60;;;-0.50;99.90;;;;;;5062604;28;20129;-63
2022/03/08 05:15:31;;;;;;;15.07;9.90;;;-0.40;99.90;;;;;;5068716;28;20500;-64
2022/03/08 05:17:58;;;;;;;13.65;9.43;;;-0.40;99.90;;;;;;5064461;28;20110;-64
2022/03/08 05:20:25;;;;;;;16.90;10.63;;;-0.50;99.90;;;;;;5064513;28;20550;-64
2022/03/08 05:22:52;;;;;;;18.77;10.52;;;-0.50;99.90;;;;;;5066510;28;20048;-64
2022/03/08 05:25:20;;;;;;;15.80;10.45;;;-0.50;99.90;;;;;;5062878;28;20053;-64
2022/03/08 05:27:47;;;;;;;16.92;10.63;;;-0.50;99.90;;;;;;5063607;28;20136;-63
2022/03/08 05:30:15;;;;;;;17.70;10.20;;;-0.50;99.90;;;;;;5065868;28;20041;-63
2022/03/08 05:32:42;;;;;;;15.95;10.60;;;-0.50;99.90;;;;;;5064900;28;20045;-63
2022/03/08 05:35:09;;;;;;;15.40;9.15;;;-0.40;99.90;;;;;;5063299;28;20053;-64
2022/03/08 05:37:36;;;;;;;13.75;9.45;;;0.20;99.90;;;;;;5066616;28;20048;-64
2022/03/08 05:40:06;;;;;;;19.35;10.57;;;-0.10;99.90;;;;;;5063984;28;20053;-63
2022/03/08 05:42:32;;;;;;;18.17;10.88;;;-0.10;99.90;;;;;;5052440;28;20048;-64
2022/03/08 05:44:59;;;;;;;16.17;9.93;;;-0.20;99.90;;;;;;5050618;28;20107;-63
2022/03/08 05:47:27;;;;;;;16.13;9.75;;;-0.20;99.90;;;;;;5051153;28;20058;-66
2022/03/08 05:49:54;;;;;;;17.45;9.93;;;-0.20;99.90;;;;;;5050449;28;20052;-64
2022/03/08 05:52:21;;;;;;;18.65;9.75;;;-0.30;99.90;;;;;;5057011;28;20140;-64
2022/03/08 05:54:48;;;;;;;17.25;10.80;;;-0.30;99.90;;;;;;5059212;28;20662;-64
2022/03/08 05:57:14;;;;;;;17.50;10.98;;;-0.40;99.90;;;;;;5062051;28;20139;-63
2022/03/08 05:59:44;;;;;;;17.45;11.55;;;-0.30;99.90;;;;;;5066051;28;20044;-63
2022/03/08 06:02:11;;;;;;;17.02;10.80;;;-0.40;99.90;;;;;;5064854;28;20106;-63
2022/03/08 06:04:40;;;;;;;16.20;10.18;;;-0.40;99.90;;;;;;5064190;28;20081;-64
2022/03/08 06:07:07;;;;;;;18.05;11.02;;;-0.40;99.90;;;;;;5065923;28;20048;-64
2022/03/08 06:09:34;;;;;;;17.17;10.65;;;-0.30;99.90;;;;;;5066022;28;20397;-64
2022/03/08 06:12:02;;;;;;;16.88;10.95;;;-0.30;99.90;;;;;;5065146;28;20052;-63
2022/03/08 06:14:30;;;;;;;20.02;10.65;;;-0.40;99.90;;;;;;5066600;28;20049;-64
2022/03/08 06:16:57;;;;;;;18.10;10.75;;;-0.40;99.90;;;;;;5064710;28;20106;-64
2022/03/08 06:19:25;;;;;;;16.73;9.40;;;-0.40;99.90;;;;;;5063612;28;20485;-64
2022/03/08 06:21:53;;;;;;;17.38;10.93;;;-0.40;99.90;;;;;;5061257;28;20135;-63
2022/03/08 06:24:23;;;;;;;19.23;11.43;;;-0.40;99.90;;;;;;5061879;28;20386;-64
2022/03/08 06:26:49;;;;;;;14.75;10.65;;;-0.40;99.90;;;;;;5062461;28;20462;-65
2022/03/08 06:29:16;;;;;;;22.73;11.02;;;-0.40;99.90;;;;;;5063011;28;20040;-64
2022/03/08 06:31:43;;;;;;;16.50;11.93;;;-0.40;99.90;;;;;;5068467;28;20048;-63
2022/03/08 06:34:10;;;;;;;15.63;10.68;;;-0.30;99.90;;;;;;5065969;28;20110;-64
2022/03/08 06:36:37;;;;;;;19.13;11.20;;;-0.30;99.90;;;;;;5064289;28;20052;-65
2022/03/08 06:39:05;;;;;;;16.92;10.57;;;-0.30;99.90;;;;;;5066355;28;20397;-64
2022/03/08 06:41:32;;;;;;;15.57;10.18;;;-0.30;99.90;;;;;;5064444;28;20052;-64
2022/03/08 06:43:59;;;;;;;14.98;10.55;;;-0.20;99.90;;;;;;5063315;28;20059;-64
2022/03/08 06:46:26;;;;;;;18.35;10.10;;;-0.20;99.90;;;;;;5068695;28;20049;-64
2022/03/08 06:48:54;;;;;;;18.38;10.65;;;-0.10;99.90;;;;;;5062522;28;20049;-64
2022/03/08 06:51:21;;;;;;;17.23;10.95;;;-0.10;99.90;;;;;;5060467;28;20564;-62
2022/03/08 06:53:48;;;;;;;16.50;10.65;;;0.00;99.90;;;;;;5064194;28;20092;-63
2022/03/08 06:56:16;;;;;;;18.10;11.52;;;0.10;99.90;;;;;;5063926;28;20591;-64
2022/03/08 06:58:43;;;;;;;16.02;10.45;;;0.20;99.90;;;;;;5066098;28;20100;-63
2022/03/08 07:01:10;;;;;;;17.48;10.20;;;0.20;99.90;;;;;;5064239;28;20516;-64
2022/03/08 07:03:37;;;;;;;19.23;10.98;;;0.30;99.90;;;;;;5069063;28;20076;-62
2022/03/08 07:06:05;;;;;;;19.98;10.43;;;0.40;99.90;;;;;;5065097;28;20040;-62
2022/03/08 07:08:32;;;;;;;14.73;10.52;;;0.50;99.90;;;;;;5066096;28;20040;-63
2022/03/08 07:10:59;;;;;;;17.83;10.80;;;0.60;99.90;;;;;;5062985;28;20104;-63
2022/03/08 07:13:27;;;;;;;17.10;9.57;;;0.90;99.90;;;;;;5062324;28;20504;-64
2022/03/08 07:15:54;;;;;;;15.23;9.73;;;1.60;99.90;;;;;;5057299;28;20053;-65
2022/03/08 07:18:20;;;;;;;17.33;10.18;;;3.60;99.90;;;;;;5069561;28;20122;-63
2022/03/08 07:20:47;;;;;;;16.38;9.30;;;3.10;99.90;;;;;;5071738;28;20542;-63
2022/03/08 07:23:14;;;;;;;16.70;10.20;;;4.00;99.90;;;;;;5073251;28;20476;-63
2022/03/08 07:25:41;;;;;;;16.13;9.00;;;5.00;99.90;;;;;;5073805;28;20075;-63
2022/03/08 07:28:08;;;;;;;15.90;10.88;;;6.10;99.90;;;;;;5073356;28;20048;-63
2022/03/08 07:30:37;;;;;;;17.20;9.20;;;7.00;99.90;;;;;;5074233;28;20063;-63
2022/03/08 07:33:03;;;;;;;15.77;9.43;;;8.00;99.90;;;;;;5073666;28;20272;-63
2022/03/08 07:35:30;;;;;;;12.52;9.00;;;9.10;99.90;;;;;;5073576;28;20052;-63
2022/03/08 07:37:57;;;;;;;13.55;8.93;;;9.70;99.90;;;;;;5074346;28;20110;-63
2022/03/08 07:40:24;;;;;;;13.18;8.98;;;10.30;99.90;;;;;;5073265;28;20145;-62
2022/03/08 07:42:51;;;;;;;12.93;8.68;;;11.00;99.80;;;;;;5074247;28;20048;-63
2022/03/08 07:45:18;;;;;;;13.55;9.43;;;11.30;94.20;;;;;;5072602;28;20476;-64
2022/03/08 07:47:46;;;;;;;12.13;8.27;;;11.40;89.60;;;;;;5072680;28;20045;-64
2022/03/08 07:50:13;;;;;;;11.50;8.63;;;12.10;94.10;;;;;;5072480;28;20097;-64
2022/03/08 07:52:40;;;;;;;11.68;8.05;;;11.80;90.80;;;;;;5071995;28;20060;-63
2022/03/08 07:55:08;;;;;;;12.05;8.38;;;12.70;91.30;;;;;;5074629;28;20049;-64
2022/03/08 07:57:35;;;;;;;10.88;7.70;;;13.00;88.30;;;;;;5072817;28;20057;-64
2022/03/08 08:00:02;;;;;;;12.30;7.70;;;13.40;88.10;;;;;;5072375;28;20518;-65
2022/03/08 08:02:29;;;;;;;10.98;8.15;;;13.80;85.60;;;;;;5067123;28;20419;-64
2022/03/08 08:04:57;;;;;;;11.25;7.65;;;14.10;82.40;;;;;;5073497;28;20048;-64
2022/03/08 08:07:24;;;;;;;10.05;7.10;;;14.40;78.10;;;;;;5073296;28;20057;-64
2022/03/08 08:09:53;;;;;;;13.30;7.82;;;14.60;77.60;;;;;;5075297;28;20110;-63
2022/03/08 08:12:20;;;;;;;11.07;7.32;;;14.80;72.80;;;;;;5072795;28;20096;-63
2022/03/08 08:14:47;;;;;;;10.77;7.35;;;14.90;74.90;;;;;;5072460;28;20560;-64
2022/03/08 08:17:14;;;;;;;10.30;7.20;;;15.10;74.30;;;;;;5073701;28;20097;-64
2022/03/08 08:19:42;;;;;;;8.02;6.47;;;15.10;69.80;;;;;;5074738;28;20094;-64
2022/03/08 08:22:10;;;;;;;9.55;7.22;;;14.90;66.50;;;;;;5072687;28;20048;-64
2022/03/08 08:24:37;;;;;;;9.10;7.00;;;14.70;66.60;;;;;;5073702;28;20400;-63
2022/03/08 08:27:04;;;;;;;8.82;6.90;;;15.00;68.40;;;;;;5072963;28;20049;-63
2022/03/08 08:29:31;;;;;;;10.50;7.20;;;14.70;66.70;;;;;;5072577;28;20488;-64
2022/03/08 08:31:58;;;;;;;8.80;6.68;;;14.50;65.40;;;;;;5072931;28;20041;-64
2022/03/08 08:34:25;;;;;;;9.90;6.80;;;14.60;65.60;;;;;;5072907;28;20385;-63
2022/03/08 08:36:52;;;;;;;12.50;7.03;;;15.20;66.60;;;;;;5073153;28;20105;-64
2022/03/08 08:39:22;;;;;;;13.73;6.70;;;15.40;65.60;;;;;;5073446;28;20060;-63
2022/03/08 08:41:49;;;;;;;9.10;6.95;;;15.50;62.50;;;;;;5072337;28;20044;-64
2022/03/08 08:44:15;;;;;;;9.13;7.03;;;15.70;65.20;;;;;;5073175;28;20048;-63
2022/03/08 08:46:42;;;;;;;10.07;6.95;;;16.00;65.50;;;;;;5073831;28;20076;-63
2022/03/08 08:49:09;;;;;;;10.57;6.72;;;16.60;63.30;;;;;;5073663;28;20052;-64
2022/03/08 08:51:36;;;;;;;8.30;6.70;;;17.00;63.60;;;;;;5072662;28;20041;-64
2022/03/08 08:54:03;;;;;;;10.43;6.38;;;17.00;60.40;;;;;;5074038;28;20137;-64
2022/03/08 08:56:35;;;;;;;8.65;7.00;;;17.30;61.50;;;;;;5073361;28;20133;-63
2022/03/08 08:59:02;;;;;;;9.68;7.28;;;17.10;60.50;;;;;;5074069;28;20135;-63
2022/03/08 09:01:29;;;;;;;8.82;6.68;;;17.30;59.90;;;;;;5072737;28;20052;-63
2022/03/08 09:03:55;;;;;;;8.73;6.28;;;17.60;59.80;;;;;;5071995;28;20193;-63
2022/03/08 09:06:22;;;;;;;11.73;6.45;;;17.40;58.70;;;;;;5073811;28;20102;-64
2022/03/08 09:08:49;;;;;;;9.32;6.95;;;17.30;58.10;;;;;;5072795;28;20414;-64
2022/03/08 09:11:16;;;;;;;8.95;6.43;;;17.20;57.50;;;;;;5055109;28;20093;-65
2022/03/08 09:13:44;;;;;;;7.45;6.65;;;17.10;58.10;;;;;;5053611;28;20101;-63
2022/03/08 09:16:14;;;;;;;8.38;7.07;;;17.50;58.10;;;;;;5065193;28;20115;-65
2022/03/08 09:18:40;;;;;;;9.32;6.55;;;17.70;56.80;;;;;;5056222;28;20074;-64
2022/03/08 09:21:07;;;;;;;8.00;6.78;;;18.30;57.00;;;;;;5057242;28;20055;-65
2022/03/08 09:23:34;;;;;;;8.38;6.35;;;18.50;56.50;;;;;;5050532;28;20098;-64
2022/03/08 09:26:01;;;;;;;8.63;7.00;;;18.20;54.00;;;;;;5053718;28;20061;-63
2022/03/08 09:28:28;;;;;;;12.77;6.63;;;17.50;54.90;;;;;;5051167;28;20048;-64
2022/03/08 09:30:56;;;;;;;10.10;7.43;;;17.50;55.00;;;;;;5052140;28;20095;-63
2022/03/08 09:33:23;;;;;;;8.73;6.18;;;17.70;55.60;;;;;;5050483;28;20114;-62
2022/03/08 09:35:53;;;;;;;8.98;6.35;;;18.10;55.30;;;;;;5051140;28;20106;-64
2022/03/08 09:38:23;;;;;;;9.23;7.05;;;18.00;54.80;;;;;;5050023;28;20053;-63
2022/03/08 09:40:51;;;;;;;11.63;6.80;;;18.30;54.90;;;;;;5053527;28;20056;-63
2022/03/08 09:43:21;;;;;;;11.27;6.95;;;18.20;54.70;;;;;;5051747;28;20497;-62
2022/03/08 09:45:48;;;;;;;8.45;6.40;;;18.60;55.00;;;;;;5051793;28;20057;-63
2022/03/08 09:48:16;;;;;;;8.93;6.80;;;18.60;54.80;;;;;;5050902;28;20095;-64
2022/03/08 09:50:43;;;;;;;12.25;6.65;;;18.70;54.10;;;;;;5055092;28;20049;-65
2022/03/08 09:53:12;;;;;;;8.65;5.55;;;18.30;53.00;;;;;;5049815;28;20048;-64
2022/03/08 09:55:39;;;;;;;7.18;6.15;;;18.40;53.50;;;;;;5052832;28;20060;-65
2022/03/08 09:58:06;;;;;;;7.65;5.97;;;18.40;54.30;;;;;;5051528;28;20052;-64
2022/03/08 10:00:33;;;;;;;7.35;5.45;;;17.80;53.90;;;;;;5055183;28;20045;-63
2022/03/08 10:03:01;;;;;;;10.30;5.78;;;18.40;54.20;;;;;;5052645;28;20056;-64
2022/03/08 10:05:37;;;;;;;7.70;5.55;;;19.20;54.30;;;;;;5068616;28;20518;-64
2022/03/08 10:08:13;;;;;;;7.45;5.38;;;19.50;52.50;;;;;;5070695;28;20446;-64
2022/03/08 10:10:49;;;;;;;6.82;5.68;;;19.20;51.30;;;;;;5061559;28;20476;-63
2022/03/08 10:13:16;;;;;;;7.00;6.03;;;19.30;50.80;;;;;;5061086;28;20438;-65
2022/03/08 10:15:43;;;;;;;8.43;5.85;;;18.90;50.90;;;;;;5050381;28;20049;-63
2022/03/08 10:18:10;;;;;;;8.60;5.95;;;18.60;51.40;;;;;;5050864;28;20128;-64
2022/03/08 10:20:38;;;;;;;6.70;5.10;;;18.60;51.00;;;;;;5049814;28;20049;-64
2022/03/08 10:23:13;;;;;;;7.68;5.18;;;18.60;50.40;;;;;;5049761;28;20462;-64
2022/03/08 10:25:41;;;;;;;7.80;5.10;;;18.60;50.30;;;;;;5059903;28;20135;-65
2022/03/08 10:28:09;;;;;;;7.90;5.15;;;18.50;50.90;;;;;;5050409;28;20389;-64
2022/03/08 10:30:50;;;;;;;6.90;5.10;;;18.50;51.30;;;;;;5050253;28;20095;-63
2022/03/08 10:33:20;;;;;;;9.02;5.18;;;18.70;49.90;;;;;;5063154;28;20059;-64
2022/03/08 10:35:53;;;;;;;6.07;4.65;;;19.10;50.00;;;;;;5063064;28;20071;-64
2022/03/08 10:38:20;;;;;;;6.80;5.43;;;19.10;48.70;;;;;;5050144;28;20068;-64
2022/03/08 10:40:47;;;;;;;7.45;4.68;;;19.20;49.80;;;;;;5052784;28;20049;-64
2022/03/08 10:43:16;;;;;;;6.40;4.55;;;19.30;48.70;;;;;;5048990;28;20638;-64
2022/03/08 10:45:45;;;;;;;6.82;4.68;;;18.80;47.40;;;;;;5050082;28;20107;-64
2022/03/08 10:48:14;;;;;;;6.70;4.80;;;19.20;47.80;;;;;;5050774;28;20085;-63
2022/03/08 10:50:43;;;;;;;5.93;4.80;;;19.10;48.50;;;;;;5049884;28;20531;-65
2022/03/08 10:53:12;;;;;;;6.18;4.68;;;19.10;47.80;;;;;;5050445;28;20056;-64
2022/03/08 10:55:44;;;;;;;6.82;4.20;;;19.10;48.20;;;;;;5054321;28;20053;-64
2022/03/08 10:58:14;;;;;;;9.95;4.28;;;19.20;48.10;;;;;;5053632;28;20090;-64
2022/03/08 11:00:43;;;;;;;7.40;4.47;;;19.10;47.30;;;;;;5055124;28;20500;-64
2022/03/08 11:03:12;;;;;;;10.10;4.18;;;18.70;47.20;;;;;;5053683;28;20064;-64
2022/03/08 11:05:40;;;;;;;4.93;3.97;;;19.30;48.30;;;;;;5053700;28;20130;-64
2022/03/08 11:08:08;;;;;;;6.28;4.60;;;19.60;46.80;;;;;;5057837;28;20089;-64
2022/03/08 11:10:37;;;;;;;7.22;4.45;;;19.20;47.70;;;;;;5056849;28;20049;-64
2022/03/08 11:13:05;;;;;;;6.25;4.18;;;19.30;46.40;;;;;;5053721;28;20137;-65
2022/03/08 11:15:34;;;;;;;8.02;4.82;;;19.00;47.40;;;;;;5055031;28;20057;-64
2022/03/08 11:18:02;;;;;;;4.80;4.03;;;19.10;46.70;;;;;;5054152;28;20053;-64
2022/03/08 11:20:30;;;;;;;6.55;4.55;;;19.30;48.00;;;;;;5054472;28;20077;-64
2022/03/08 11:22:59;;;;;;;6.20;4.32;;;19.10;46.70;;;;;;5054127;28;20076;-64
2022/03/08 11:25:29;;;;;;;5.55;4.20;;;18.70;47.60;;;;;;5069630;28;20056;-63
2022/03/08 11:27:58;;;;;;;6.43;4.63;;;18.90;47.70;;;;;;5063499;28;20130;-63
2022/03/08 11:30:27;;;;;;;4.80;3.78;;;19.30;47.30;;;;;;5052916;28;20061;-64
2022/03/08 11:33:03;;;;;;;5.90;4.05;;;19.40;47.20;;;;;;5053037;28;20057;-64
2022/03/08 11:35:34;;;;;;;6.63;4.28;;;19.70;48.70;;;;;;5071912;28;20110;-65
2022/03/08 11:38:02;;;;;;;4.75;3.83;;;20.00;47.70;;;;;;5052832;28;20084;-63
2022/03/08 11:40:33;;;;;;;5.10;4.15;;;20.40;47.30;;;;;;5053721;28;20088;-64
2022/03/08 11:43:07;;;;;;;5.70;4.18;;;20.10;46.50;;;;;;5053119;28;20057;-64
2022/03/08 11:45:34;;;;;;;5.97;4.28;;;19.40;47.00;;;;;;5052630;28;20431;-64
2022/03/08 11:48:03;;;;;;;6.07;4.63;;;19.20;47.00;;;;;;5052771;28;20417;-65
2022/03/08 11:50:34;;;;;;;6.35;4.13;;;18.60;47.00;;;;;;5052778;28;20045;-64
2022/03/08 11:53:08;;;;;;;14.48;4.07;;;18.50;48.20;;;;;;5054532;28;20445;-64
2022/03/08 11:55:37;;;;;;;9.38;4.05;;;19.30;47.70;;;;;;5052959;28;20076;-64
2022/03/08 11:58:07;;;;;;;4.70;3.40;;;19.00;48.20;;;;;;5045429;28;20400;-63
2022/03/08 12:00:37;;;;;;;5.20;3.63;;;19.30;47.40;;;;;;5052441;28;20099;-64
2022/03/08 12:03:07;;;;;;;5.05;3.80;;;19.70;48.10;;;;;;5052492;28;20060;-64
2022/03/08 12:05:56;;;;;;;4.43;3.78;;;19.10;47.60;;;;;;5051825;28;20107;-63
2022/03/08 12:09:01;;;;;;;5.38;3.90;;;18.90;47.50;;;;;;5063728;28;20053;-64
2022/03/08 12:11:42;;;;;;;5.82;4.03;;;18.90;48.40;;;;;;5054382;28;20467;-63
2022/03/08 12:14:13;;;;;;;5.25;4.13;;;19.10;48.20;;;;;;5052127;28;20103;-63
2022/03/08 12:16:44;;;;;;;5.20;3.42;;;19.60;47.80;;;;;;5052586;28;20142;-64
2022/03/08 12:19:13;;;;;;;6.05;3.72;;;19.70;47.50;;;;;;5052921;28;20045;-64
2022/03/08 12:21:46;;;;;;;4.97;3.40;;;19.60;47.70;;;;;;5053188;28;20049;-63
2022/03/08 12:24:17;;;;;;;5.20;3.75;;;19.60;47.20;;;;;;5054641;28;20068;-64
2022/03/08 12:26:54;;;;;;;6.30;3.72;;;19.50;47.50;;;;;;5053536;28;20576;-63
2022/03/08 12:29:24;;;;;;;5.07;3.55;;;19.20;47.50;;;;;;5071765;28;20049;-64
2022/03/08 12:32:27;;;;;;;7.13;3.40;;;19.00;47.30;;;;;;5057612;28;20128;-64
2022/03/08 12:34:57;;;;;;;6.10;4.28;;;19.20;47.00;;;;;;5052784;28;20053;-64
2022/03/08 12:37:27;;;;;;;4.13;3.53;;;19.10;46.70;;;;;;5055023;28;20138;-63
2022/03/08 12:39:56;;;;;;;6.50;3.25;;;19.20;47.30;;;;;;5051666;28;20500;-64
2022/03/08 12:42:27;;;;;;;4.75;3.28;;;19.40;47.10;;;;;;5052522;28;20523;-64
2022/03/08 12:45:02;;;;;;;6.20;3.55;;;19.70;47.10;;;;;;5053364;28;20091;-64
2022/03/08 12:47:32;;;;;;;5.47;3.47;;;19.00;46.80;;;;;;5051688;28;20102;-63